Time;durP1;ratioP1;P1;durP2;ratioP2;P2;SDS_P1;SDS_P2;PMS_P1;PMS_P2;Temp;Humidity;BMP_temperature;BMP_pressure;BME280_temperature;BME280_humidity;BME280_pressure;Samples;Min_cycle;Max_cycle;Signal;HPM_P1;HPM_P2
2024/02/15 00:00:15;;;;;;;2.83;1.65;;;;;;;4.39;90.88;93190.81;5094266;28;20165;-77
2024/02/15 00:02:41;;;;;;;2.28;1.35;;;;;;;4.40;90.51;93191.59;5113379;28;20107;-77
2024/02/15 00:05:07;;;;;;;2.58;1.50;;;;;;;4.38;89.98;93197.78;5094442;28;20038;-77
2024/02/15 00:07:35;;;;;;;2.80;1.48;;;;;;;4.41;89.70;93198.31;5107091;28;20036;-77
2024/02/15 00:10:00;;;;;;;3.58;1.50;;;;;;;4.42;89.23;93195.50;5104892;28;20392;-76
2024/02/15 00:12:26;;;;;;;2.58;1.40;;;;;;;4.40;88.57;93192.34;5085345;28;20066;-79
2024/02/15 00:14:52;;;;;;;1.83;1.20;;;;;;;4.40;87.60;93192.34;5104230;28;20395;-77
2024/02/15 00:17:18;;;;;;;2.08;1.20;;;;;;;4.39;87.60;93185.63;5102391;28;20040;-78
2024/02/15 00:19:43;;;;;;;2.15;1.30;;;;;;;4.41;87.94;93198.31;5119095;28;20024;-77
2024/02/15 00:22:09;;;;;;;2.95;1.27;;;;;;;4.40;87.98;93196.75;5107156;28;20040;-77
2024/02/15 00:24:37;;;;;;;3.47;1.50;;;;;;;4.35;87.27;93189.69;5104636;28;20023;-77
2024/02/15 00:27:04;;;;;;;2.42;1.25;;;;;;;4.37;87.18;93193.63;5109153;28;20139;-77
2024/02/15 00:29:31;;;;;;;4.82;1.20;;;;;;;4.39;86.58;93198.56;5118014;28;20032;-78
2024/02/15 00:31:57;;;;;;;2.67;1.40;;;;;;;4.40;87.10;93196.75;5106865;28;20039;-78
2024/02/15 00:34:22;;;;;;;2.08;1.25;;;;;;;4.40;86.57;93196.75;5101791;28;20047;-78
2024/02/15 00:36:48;;;;;;;2.97;1.50;;;;;;;4.38;86.39;93195.19;5103070;28;20047;-78
2024/02/15 00:39:13;;;;;;;3.22;1.40;;;;;;;4.40;86.51;93194.19;5116272;28;20386;-78
2024/02/15 00:41:41;;;;;;;6.38;1.58;;;;;;;4.40;87.48;93186.41;5099581;28;20054;-78
2024/02/15 00:44:12;;;;;;;1.95;1.27;;;;;;;4.38;87.63;93195.19;5102284;28;20038;-77
2024/02/15 00:46:38;;;;;;;1.77;1.20;;;;;;;4.37;87.97;93188.44;5109110;28;20027;-76
2024/02/15 00:49:07;;;;;;;2.47;1.25;;;;;;;4.36;88.10;93186.06;5091591;28;20080;-77
2024/02/15 00:51:34;;;;;;;2.25;1.10;;;;;;;4.33;88.36;93186.53;5097489;28;20158;-79
2024/02/15 00:54:01;;;;;;;4.00;1.48;;;;;;;4.28;89.01;93178.63;5106063;28;20479;-77
2024/02/15 00:56:27;;;;;;;1.48;1.00;;;;;;;4.23;89.62;93176.72;5097746;28;20023;-77
2024/02/15 00:58:53;;;;;;;2.75;1.52;;;;;;;4.20;89.51;93174.59;5109201;28;20023;-78
2024/02/15 01:01:19;;;;;;;2.28;1.30;;;;;;;4.19;89.28;93170.47;5088162;28;20571;-79
2024/02/15 01:03:44;;;;;;;2.10;1.30;;;;;;;4.17;88.96;93167.31;5101341;28;20031;-78
2024/02/15 01:06:10;;;;;;;1.83;1.10;;;;;;;4.15;87.95;93170.13;5097265;28;20038;-78
2024/02/15 01:08:36;;;;;;;2.25;1.30;;;;;;;4.11;88.41;93157.84;5098879;28;20380;-78
2024/02/15 01:11:02;;;;;;;1.95;1.25;;;;;;;4.11;88.28;93168.22;5065155;28;20036;-77
2024/02/15 01:13:28;;;;;;;2.40;1.40;;;;;;;4.11;89.00;93166.41;5087142;28;20036;-78
2024/02/15 01:15:54;;;;;;;2.22;1.33;;;;;;;4.10;89.61;93158.88;5089505;28;20028;-77
2024/02/15 01:18:19;;;;;;;1.70;1.20;;;;;;;4.05;89.48;93163.94;5102378;28;20059;-78
2024/02/15 01:20:45;;;;;;;1.70;1.20;;;;;;;4.06;89.22;93166.31;5087028;28;20057;-77
2024/02/15 01:23:10;;;;;;;2.30;1.30;;;;;;;4.04;88.52;93157.97;5083703;28;20042;-77
2024/02/15 01:25:36;;;;;;;2.15;1.45;;;;;;;4.09;87.79;93167.66;5099449;28;20040;-76
2024/02/15 01:28:02;;;;;;;2.63;1.42;;;;;;;4.11;88.14;93163.03;5108327;28;20030;-78
2024/02/15 01:30:30;;;;;;;3.50;1.73;;;;;;;4.11;88.45;93169.00;5103573;28;20128;-77
2024/02/15 01:32:55;;;;;;;2.65;1.50;;;;;;;4.09;88.03;93168.44;5110282;28;20264;-78
2024/02/15 01:35:21;;;;;;;2.25;1.30;;;;;;;4.09;88.89;93171.03;5110885;28;20477;-77
2024/02/15 01:37:47;;;;;;;4.13;1.52;;;;;;;4.10;88.91;93177.00;5102974;28;20316;-78
2024/02/15 01:40:12;;;;;;;2.08;1.30;;;;;;;4.08;88.78;93166.88;5101663;28;20478;-78
2024/02/15 01:42:39;;;;;;;2.63;1.35;;;;;;;4.10;88.02;93164.06;5107663;28;20391;-78
2024/02/15 01:45:05;;;;;;;2.47;1.20;;;;;;;4.04;88.84;93154.59;5086677;28;20044;-78
2024/02/15 01:47:31;;;;;;;2.00;1.30;;;;;;;4.07;88.16;93167.09;5098391;28;20023;-78
2024/02/15 01:49:57;;;;;;;2.60;1.48;;;;;;;4.08;87.91;93158.31;5099046;28;20039;-77
2024/02/15 01:52:23;;;;;;;2.92;1.38;;;;;;;4.08;87.72;93164.28;5106869;28;20034;-78
2024/02/15 01:54:52;;;;;;;2.13;1.40;;;;;;;4.09;87.87;93157.28;5101150;28;20116;-78
2024/02/15 01:57:21;;;;;;;2.60;1.42;;;;;;;4.07;91.09;93159.31;5067965;28;20269;-77
2024/02/15 01:59:46;;;;;;;2.28;1.60;;;;;;;4.04;90.31;93157.19;5101750;28;20119;-78
2024/02/15 02:02:18;;;;;;;4.07;1.75;;;;;;;4.02;89.85;93144.47;5082344;28;20135;-78
2024/02/15 02:04:45;;;;;;;2.70;1.40;;;;;;;4.01;89.28;93148.09;5109601;28;20039;-77
2024/02/15 02:07:11;;;;;;;3.78;1.70;;;;;;;3.99;89.98;93144.94;5101071;28;20028;-78
2024/02/15 02:09:37;;;;;;;3.20;1.63;;;;;;;3.99;89.69;93138.97;5080694;28;20078;-77
2024/02/15 02:12:03;;;;;;;3.38;1.90;;;;;;;4.00;89.17;93133.53;5090271;28;20032;-77
2024/02/15 02:14:30;;;;;;;3.75;1.90;;;;;;;4.02;90.20;93141.09;5102179;28;20043;-77
2024/02/15 02:16:55;;;;;;;4.90;1.73;;;;;;;4.00;90.66;93130.94;5108584;28;20027;-77
2024/02/15 02:19:21;;;;;;;3.78;2.00;;;;;;;3.90;90.93;93121.19;5097128;28;20040;-78
2024/02/15 02:21:50;;;;;;;3.03;1.60;;;;;;;3.96;91.61;93125.47;5086177;28;20088;-78
2024/02/15 02:24:21;;;;;;;3.85;1.85;;;;;;;3.94;91.07;93127.47;5082718;28;20048;-78
2024/02/15 02:26:47;;;;;;;3.72;1.95;;;;;;;3.93;90.68;93125.13;5073966;28;20067;-77
2024/02/15 02:29:16;;;;;;;3.80;1.92;;;;;;;3.95;91.05;93134.22;5089325;28;20422;-76
2024/02/15 02:31:42;;;;;;;4.20;2.00;;;;;;;3.92;92.50;93134.69;5105061;28;20035;-77
2024/02/15 02:34:08;;;;;;;3.15;1.75;;;;;;;3.91;91.73;93133.09;5105288;28;20047;-77
2024/02/15 02:36:34;;;;;;;3.53;1.63;;;;;;;3.91;91.74;93127.94;5105867;28;20120;-77
2024/02/15 02:39:00;;;;;;;3.90;1.75;;;;;;;3.92;91.06;93118.38;5090374;28;20067;-78
2024/02/15 02:41:28;;;;;;;2.28;1.30;;;;;;;3.90;90.39;93118.59;5105690;28;20376;-78
2024/02/15 02:43:56;;;;;;;3.28;1.70;;;;;;;3.89;90.61;93114.41;5103298;28;20035;-78
2024/02/15 02:46:21;;;;;;;3.10;1.63;;;;;;;3.92;91.51;93108.78;5109507;28;20039;-78
2024/02/15 02:48:47;;;;;;;3.05;1.60;;;;;;;3.92;90.50;93108.78;5103850;28;20036;-77
2024/02/15 02:51:12;;;;;;;3.45;1.70;;;;;;;3.93;90.55;93114.75;5085608;28;20063;-78
2024/02/15 02:53:38;;;;;;;2.35;1.50;;;;;;;3.92;90.18;93113.19;5104457;28;20069;-78
2024/02/15 02:56:04;;;;;;;3.13;1.70;;;;;;;3.93;90.98;93105.16;5091571;28;20032;-78
2024/02/15 02:58:29;;;;;;;3.92;1.95;;;;;;;3.93;91.80;93105.16;5087538;28;20668;-78
2024/02/15 03:00:56;;;;;;;4.88;1.95;;;;;;;3.96;91.26;93116.88;5097381;28;20024;-78
2024/02/15 03:03:24;;;;;;;3.05;1.65;;;;;;;3.96;91.66;93112.50;5090236;28;20031;-78
2024/02/15 03:05:50;;;;;;;3.50;1.70;;;;;;;3.91;92.49;93106.41;5098584;28;20048;-77
2024/02/15 03:08:17;;;;;;;2.53;1.50;;;;;;;3.85;92.11;93110.72;5090021;28;20096;-78
2024/02/15 03:10:43;;;;;;;2.78;1.48;;;;;;;3.84;92.22;93105.78;5105323;28;20039;-77
2024/02/15 03:13:09;;;;;;;2.63;1.50;;;;;;;3.81;92.92;93103.66;5108313;28;20023;-78
2024/02/15 03:15:35;;;;;;;3.20;1.60;;;;;;;3.77;92.24;93103.31;5072881;28;20059;-77
2024/02/15 03:18:06;;;;;;;3.67;1.77;;;;;;;3.78;93.13;93106.69;5083714;28;20514;-78
2024/02/15 03:20:33;;;;;;;5.07;2.25;;;;;;;3.73;94.46;93099.59;5104283;28;20038;-78
2024/02/15 03:23:00;;;;;;;4.22;2.05;;;;;;;3.75;93.84;93111.28;5095526;28;20479;-78
2024/02/15 03:25:28;;;;;;;4.05;1.90;;;;;;;3.78;93.97;93109.25;5109570;28;20032;-78
2024/02/15 03:27:56;;;;;;;4.28;2.00;;;;;;;3.79;93.75;93111.63;5096554;28;20510;-78
2024/02/15 03:30:24;;;;;;;3.28;1.80;;;;;;;3.78;92.84;93107.47;5103489;28;20388;-78
2024/02/15 03:32:53;;;;;;;3.47;1.60;;;;;;;3.76;93.44;93109.50;5102742;28;20063;-77
2024/02/15 03:35:22;;;;;;;3.88;1.80;;;;;;;3.77;93.48;93105.13;5096879;28;20036;-77
2024/02/15 03:37:53;;;;;;;4.78;1.65;;;;;;;3.77;93.29;93108.47;5099168;28;20054;-77
2024/02/15 03:40:20;;;;;;;2.60;1.53;;;;;;;3.77;93.95;93103.31;5091411;28;20050;-77
2024/02/15 03:42:47;;;;;;;2.85;1.70;;;;;;;3.77;92.30;93105.91;5106194;28;20356;-77
2024/02/15 03:45:13;;;;;;;2.60;1.48;;;;;;;3.76;92.51;93104.34;5099897;28;20412;-77
2024/02/15 03:47:38;;;;;;;4.10;1.48;;;;;;;3.76;92.40;93099.16;5102516;28;20024;-77
2024/02/15 03:50:08;;;;;;;2.05;1.40;;;;;;;3.77;92.68;93100.72;5108244;28;20044;-77
2024/02/15 03:52:33;;;;;;;2.85;1.65;;;;;;;3.75;91.90;93105.34;5089507;28;20610;-77
2024/02/15 03:54:59;;;;;;;2.38;1.35;;;;;;;3.72;91.93;93090.25;5081550;28;20134;-77
2024/02/15 03:57:28;;;;;;;2.47;1.40;;;;;;;3.75;91.15;93097.56;5095487;28;20353;-77
2024/02/15 03:59:56;;;;;;;3.70;1.75;;;;;;;3.73;93.00;93099.59;5102771;28;20039;-77
2024/02/15 04:02:23;;;;;;;2.45;1.50;;;;;;;3.67;92.09;93084.97;5082296;28;20407;-76
2024/02/15 04:04:56;;;;;;;2.28;1.40;;;;;;;3.67;92.36;93095.31;5081031;28;20032;-78
2024/02/15 04:07:27;;;;;;;3.47;1.70;;;;;;;3.68;92.73;93091.72;5092370;28;20043;-78
2024/02/15 04:09:53;;;;;;;2.83;1.73;;;;;;;3.68;93.69;93102.88;5104825;28;20039;-78
2024/02/15 04:12:19;;;;;;;5.53;1.90;;;;;;;3.67;94.04;93097.91;5095213;28;20483;-78
2024/02/15 04:14:45;;;;;;;3.67;1.80;;;;;;;3.68;93.54;93102.09;5094995;28;20051;-78
2024/02/15 04:17:16;;;;;;;4.20;1.60;;;;;;;3.67;94.06;93098.72;5100042;28;20087;-78
2024/02/15 04:19:46;;;;;;;2.53;1.42;;;;;;;3.65;95.81;93099.97;5105696;28;20043;-78
2024/02/15 04:22:12;;;;;;;4.00;2.00;;;;;;;3.62;95.70;93097.81;5099603;28;20031;-78
2024/02/15 04:24:41;;;;;;;5.90;2.45;;;;;;;3.61;95.89;93096.25;5103003;28;20119;-78
2024/02/15 04:27:13;;;;;;;4.10;1.90;;;;;;;3.53;95.42;93095.59;5101260;28;20038;-78
2024/02/15 04:29:44;;;;;;;8.93;2.35;;;;;;;3.58;95.19;93094.91;5084918;28;20130;-78
2024/02/15 04:32:13;;;;;;;5.25;1.92;;;;;;;3.58;96.06;93097.50;5078912;28;20373;-77
2024/02/15 04:34:41;;;;;;;4.03;1.90;;;;;;;3.55;94.89;93090.94;5060343;28;20144;-77
2024/02/15 04:37:08;;;;;;;3.08;1.70;;;;;;;3.55;94.75;93088.38;5064419;28;20017;-78
2024/02/15 04:39:37;;;;;;;2.80;1.75;;;;;;;3.54;94.01;93091.19;5040484;28;20029;-78
2024/02/15 04:42:06;;;;;;;4.82;1.98;;;;;;;3.62;94.13;93100.41;5059413;28;20037;-78
2024/02/15 04:44:34;;;;;;;4.20;2.05;;;;;;;3.62;94.54;93101.19;5065416;28;20031;-78
2024/02/15 04:47:01;;;;;;;3.38;2.00;;;;;;;3.61;94.38;93102.22;5059733;28;20557;-77
2024/02/15 04:49:28;;;;;;;4.05;2.22;;;;;;;3.62;94.06;93100.41;5057065;28;20028;-78
2024/02/15 04:51:55;;;;;;;4.13;2.20;;;;;;;3.61;94.23;93093.66;5053922;28;20492;-77
2024/02/15 04:54:21;;;;;;;5.72;2.30;;;;;;;3.61;94.75;93089.28;5050243;28;20044;-77
2024/02/15 04:56:47;;;;;;;4.05;2.20;;;;;;;3.63;94.90;93084.66;5066467;28;20044;-77
2024/02/15 04:59:15;;;;;;;4.60;2.15;;;;;;;3.62;94.73;93087.47;5072147;28;20025;-78
2024/02/15 05:01:43;;;;;;;4.40;1.98;;;;;;;3.66;94.39;93091.16;5055945;28;20033;-77
2024/02/15 05:04:13;;;;;;;4.00;1.80;;;;;;;3.64;95.11;93083.63;5064147;28;20063;-77
2024/02/15 05:06:40;;;;;;;3.38;1.70;;;;;;;3.63;96.06;93084.66;5048970;28;20047;-77
2024/02/15 05:09:10;;;;;;;3.83;2.00;;;;;;;3.60;95.94;93073.94;5052090;28;20029;-78
2024/02/15 05:11:41;;;;;;;3.03;1.85;;;;;;;3.58;96.14;93081.97;5057431;28;20041;-77
2024/02/15 05:14:07;;;;;;;3.70;1.90;;;;;;;3.55;96.17;93082.41;5067021;28;20040;-77
2024/02/15 05:16:38;;;;;;;3.85;1.90;;;;;;;3.53;97.22;93084.44;5063412;28;20055;-77
2024/02/15 05:19:05;;;;;;;4.00;1.65;;;;;;;3.52;96.37;93083.66;5064504;28;20060;-77
2024/02/15 05:21:30;;;;;;;4.03;1.80;;;;;;;3.52;98.21;93094.00;5054052;28;20032;-77
2024/02/15 05:23:57;;;;;;;3.50;1.92;;;;;;;3.49;98.10;93080.72;5069047;28;20074;-77
2024/02/15 05:26:23;;;;;;;5.03;2.17;;;;;;;3.47;99.53;93091.31;5063809;28;20112;-78
2024/02/15 05:28:49;;;;;;;4.38;2.17;;;;;;;3.46;99.79;93089.72;5057189;28;20079;-77
2024/02/15 05:31:25;;;;;;;4.00;2.22;;;;;;;3.45;100.00;93095.16;5065929;28;20078;-77
2024/02/15 05:33:53;;;;;;;4.90;2.20;;;;;;;3.42;100.00;93093.78;5105812;28;20050;-77
2024/02/15 05:36:20;;;;;;;3.85;2.10;;;;;;;3.42;100.00;93093.00;5101518;28;20126;-77
2024/02/15 05:38:53;;;;;;;4.40;2.33;;;;;;;3.39;100.00;93088.28;5081088;28;20429;-77
2024/02/15 05:41:20;;;;;;;4.78;2.30;;;;;;;3.31;99.68;93084.22;5106318;28;20449;-78
2024/02/15 05:43:48;;;;;;;6.40;2.60;;;;;;;3.34;99.25;93086.38;5101970;28;20037;-77
2024/02/15 05:46:14;;;;;;;4.75;2.53;;;;;;;3.40;99.51;93095.84;5091154;28;20062;-78
2024/02/15 05:48:40;;;;;;;5.13;2.65;;;;;;;3.42;99.09;93093.00;5109309;28;20019;-77
2024/02/15 05:51:07;;;;;;;5.35;2.85;;;;;;;3.45;99.50;93093.34;5091193;28;20039;-77
2024/02/15 05:53:36;;;;;;;5.30;2.75;;;;;;;3.46;99.72;93099.31;5109455;28;20454;-78
2024/02/15 05:56:10;;;;;;;5.18;2.80;;;;;;;3.47;100.00;93093.91;5096371;28;20039;-78
2024/02/15 05:58:35;;;;;;;5.30;2.83;;;;;;;3.45;100.00;93087.38;5100448;28;20088;-77
2024/02/15 06:01:06;;;;;;;5.85;2.67;;;;;;;3.49;100.00;93088.47;5105460;28;20027;-78
2024/02/15 06:03:33;;;;;;;6.13;3.05;;;;;;;3.48;100.00;93085.13;5100803;28;20258;-78
2024/02/15 06:06:02;;;;;;;6.22;3.20;;;;;;;3.45;100.00;93088.16;5102425;28;20094;-77
2024/02/15 06:08:31;;;;;;;6.18;3.17;;;;;;;3.44;100.00;93089.16;5078952;28;20044;-78
2024/02/15 06:10:57;;;;;;;6.65;3.20;;;;;;;3.42;100.00;93088.59;5091355;28;20035;-77
2024/02/15 06:13:23;;;;;;;7.13;3.35;;;;;;;3.41;100.00;93087.03;5092491;28;20032;-78
2024/02/15 06:15:53;;;;;;;5.80;3.08;;;;;;;3.41;100.00;93087.03;5085364;28;20012;-78
2024/02/15 06:18:29;;;;;;;6.55;3.15;;;;;;;3.40;100.00;93085.47;5096452;28;20032;-77
2024/02/15 06:21:02;;;;;;;7.03;3.08;;;;;;;3.39;100.00;93086.47;5110912;28;20042;-77
2024/02/15 06:23:28;;;;;;;7.10;2.88;;;;;;;3.41;100.00;93089.63;5082772;28;20137;-77
2024/02/15 06:25:56;;;;;;;4.97;2.85;;;;;;;3.42;100.00;93093.00;5103330;28;20032;-77
2024/02/15 06:39:41;;;;;;;4.53;1.77;;;;;;;3.54;100.00;93093.78;5088904;28;20530;-78
2024/02/15 06:42:11;;;;;;;4.53;2.10;;;;;;;3.66;100.00;93096.34;5115309;28;20024;-78
2024/02/15 06:44:40;;;;;;;5.93;2.35;;;;;;;3.78;100.00;93094.50;5113229;28;20035;-78
2024/02/15 06:47:06;;;;;;;4.57;2.33;;;;;;;3.95;100.00;93103.13;5104328;28;20058;-77
2024/02/15 06:49:33;;;;;;;4.20;1.95;;;;;;;4.21;99.96;93103.63;5106710;28;20499;-76
2024/02/15 06:52:01;;;;;;;3.30;1.60;;;;;;;4.63;97.15;93100.72;5090699;28;20031;-78
2024/02/15 06:54:27;;;;;;;3.22;1.70;;;;;;;5.13;93.71;93097.34;5114059;28;20477;-77
2024/02/15 06:56:54;;;;;;;3.53;1.70;;;;;;;5.73;91.61;93106.22;5093676;28;20111;-75
2024/02/15 06:59:22;;;;;;;2.90;1.50;;;;;;;6.45;87.04;93105.25;5096856;28;20503;-77
2024/02/15 07:01:52;;;;;;;2.15;1.40;;;;;;;6.92;82.60;93097.88;5104069;28;20507;-79
2024/02/15 07:04:19;;;;;;;3.63;1.40;;;;;;;7.65;79.31;93105.91;5110161;28;20051;-78
2024/02/15 07:06:47;;;;;;;2.08;1.13;;;;;;;8.05;73.68;93107.13;5103618;28;20024;-77
2024/02/15 07:09:19;;;;;;;2.28;1.23;;;;;;;8.31;72.98;93110.63;5107032;28;20063;-78
2024/02/15 07:11:46;;;;;;;2.78;1.35;;;;;;;8.46;69.34;93105.47;5100502;28;20122;-77
2024/02/15 07:14:13;;;;;;;3.00;1.60;;;;;;;8.69;69.44;93111.25;5102318;28;20053;-78
2024/02/15 07:16:39;;;;;;;4.25;1.70;;;;;;;8.78;66.04;93112.34;5091666;28;20047;-78
2024/02/15 07:19:05;;;;;;;5.60;2.20;;;;;;;8.95;65.95;93114.69;5102914;28;20028;-79
2024/02/15 07:21:31;;;;;;;4.45;2.38;;;;;;;9.00;65.06;93112.06;5070393;28;20088;-79
2024/02/15 07:23:58;;;;;;;3.70;2.08;;;;;;;9.30;64.99;93116.53;5105911;28;20088;-77
2024/02/15 07:26:24;;;;;;;3.90;2.20;;;;;;;10.14;63.85;93124.72;5091542;28;20483;-77
2024/02/15 07:28:54;;;;;;;4.20;2.17;;;;;;;11.06;57.40;93122.72;5101766;28;20506;-77
2024/02/15 07:31:23;;;;;;;4.28;2.30;;;;;;;11.70;54.19;93120.88;5086210;28;20123;-78
2024/02/15 07:33:51;;;;;;;7.93;2.40;;;;;;;11.99;50.88;93119.03;5108605;28;20494;-78
2024/02/15 07:36:23;;;;;;;4.35;2.25;;;;;;;12.16;50.17;93107.28;5109804;28;20092;-77
2024/02/15 07:38:50;;;;;;;3.92;2.30;;;;;;;13.01;49.29;93124.84;5102665;28;20119;-77
2024/02/15 07:41:19;;;;;;;3.30;2.00;;;;;;;12.89;46.38;93124.50;5100283;28;20415;-78
2024/02/15 07:43:46;;;;;;;3.90;2.10;;;;;;;13.43;45.19;93125.81;5105489;28;20097;-78
2024/02/15 07:46:14;;;;;;;3.40;1.90;;;;;;;13.87;43.56;93115.88;5070694;28;20032;-78
2024/02/15 07:48:44;;;;;;;3.47;1.60;;;;;;;14.18;43.22;93120.59;5084725;28;20045;-78
2024/02/15 07:51:11;;;;;;;2.90;1.77;;;;;;;14.19;42.12;93125.56;5087790;28;20099;-79
2024/02/15 07:53:37;;;;;;;3.78;1.60;;;;;;;13.42;44.52;93124.28;5085143;28;20032;-77
2024/02/15 07:56:02;;;;;;;3.10;1.75;;;;;;;12.99;46.75;93116.47;5100925;28;20093;-78
2024/02/15 07:58:28;;;;;;;2.75;1.55;;;;;;;12.31;49.86;93116.84;5097333;28;20066;-79
2024/02/15 08:00:53;;;;;;;3.45;1.60;;;;;;;12.21;50.08;93102.78;5097154;28;20065;-77
2024/02/15 08:03:19;;;;;;;3.90;1.80;;;;;;;11.88;52.40;93102.59;5090074;28;20036;-77
2024/02/15 08:05:44;;;;;;;7.85;2.00;;;;;;;12.24;52.17;93096.97;5093439;28;20252;-77
2024/02/15 08:08:10;;;;;;;3.65;1.70;;;;;;;12.22;52.43;93104.31;5088536;28;20039;-77
2024/02/15 08:10:36;;;;;;;2.72;1.55;;;;;;;11.99;52.66;93095.41;5107137;28;20118;-77
2024/02/15 08:13:01;;;;;;;2.55;1.52;;;;;;;11.93;53.80;93106.25;5093673;28;20593;-77
2024/02/15 08:15:27;;;;;;;2.80;1.63;;;;;;;12.23;53.68;93092.78;5069353;28;20377;-77
2024/02/15 08:17:54;;;;;;;2.60;1.40;;;;;;;12.79;53.34;93095.72;5107512;28;20051;-77
2024/02/15 08:20:23;;;;;;;2.92;1.60;;;;;;;13.42;48.95;93095.34;5108019;28;20730;-76
2024/02/15 08:22:49;;;;;;;3.03;1.70;;;;;;;13.92;46.60;93097.38;5104749;28;20646;-78
2024/02/15 08:25:15;;;;;;;2.47;1.50;;;;;;;13.82;44.82;93094.91;5107207;28;20054;-77
2024/02/15 08:27:46;;;;;;;3.45;1.60;;;;;;;13.51;46.17;93088.34;5106458;28;20134;-77
2024/02/15 08:30:13;;;;;;;2.05;1.48;;;;;;;13.74;44.14;93091.91;5112202;28;20560;-77
2024/02/15 08:32:41;;;;;;;4.07;1.67;;;;;;;13.43;45.38;93090.84;5088701;28;20104;-77
2024/02/15 08:35:10;;;;;;;2.80;1.60;;;;;;;13.19;48.04;93093.56;5081844;28;20415;-76
2024/02/15 08:37:37;;;;;;;2.85;1.55;;;;;;;12.99;45.65;93098.09;5068539;28;20496;-77
2024/02/15 08:40:13;;;;;;;1.80;1.30;;;;;;;12.46;47.85;93093.03;5085703;28;20043;-78
2024/02/15 08:42:43;;;;;;;3.17;1.58;;;;;;;12.19;48.84;93099.66;5087163;28;20169;-79
2024/02/15 08:45:10;;;;;;;2.45;1.50;;;;;;;12.54;50.16;93092.41;5084652;28;20027;-76
2024/02/15 08:47:41;;;;;;;2.75;1.50;;;;;;;13.04;49.41;93098.00;5078286;28;20039;-77
2024/02/15 08:50:11;;;;;;;2.17;1.30;;;;;;;13.48;46.80;93096.81;5093029;28;20070;-77
2024/02/15 08:52:40;;;;;;;2.25;1.30;;;;;;;13.66;47.46;93087.28;5080200;28;20032;-77
2024/02/15 08:55:07;;;;;;;2.08;1.35;;;;;;;13.79;43.46;93090.25;5082904;28;20032;-76
2024/02/15 08:57:33;;;;;;;2.30;1.30;;;;;;;13.84;43.67;93085.66;5082743;28;20030;-76
2024/02/15 08:59:59;;;;;;;2.60;1.40;;;;;;;13.61;46.33;93086.63;5084416;28;20059;-76
2024/02/15 09:02:25;;;;;;;4.25;1.50;;;;;;;12.81;52.74;93083.09;5088398;28;20036;-77
2024/02/15 09:04:51;;;;;;;3.60;1.80;;;;;;;12.50;54.39;93080.91;5089500;28;20024;-77
2024/02/15 09:07:16;;;;;;;4.13;1.80;;;;;;;11.97;58.04;93073.91;5081188;28;20040;-76
2024/02/15 09:09:42;;;;;;;2.80;1.50;;;;;;;12.01;56.68;93080.16;5093153;28;20036;-78
2024/02/15 09:12:08;;;;;;;2.88;1.58;;;;;;;11.64;58.17;93072.91;5089879;28;20047;-80
2024/02/15 09:14:34;;;;;;;2.80;1.70;;;;;;;11.65;57.24;93082.38;5096050;28;20048;-77
2024/02/15 09:17:00;;;;;;;2.63;1.50;;;;;;;11.49;56.97;93073.09;5103859;28;20028;-80
2024/02/15 09:19:26;;;;;;;6.15;1.73;;;;;;;11.24;57.13;93073.03;5106131;28;20062;-80
2024/02/15 09:21:51;;;;;;;3.30;1.40;;;;;;;11.44;57.67;93077.31;5095528;28;20081;-80
2024/02/15 09:24:17;;;;;;;3.15;1.60;;;;;;;11.44;57.22;93074.69;5095098;28;20032;-81
2024/02/15 09:26:44;;;;;;;2.80;1.35;;;;;;;11.66;57.76;93076.03;5090143;28;20044;-80
2024/02/15 09:29:11;;;;;;;3.00;1.30;;;;;;;11.84;57.04;93077.19;5097948;28;20033;-80
2024/02/15 09:31:37;;;;;;;1.88;1.35;;;;;;;12.08;54.41;93079.84;5085010;28;20359;-80
2024/02/15 09:34:06;;;;;;;4.55;1.70;;;;;;;12.14;55.08;93076.09;5114745;28;20062;-82
2024/02/15 09:36:37;;;;;;;6.50;1.60;;;;;;;12.38;56.31;93077.91;5115578;28;20142;-79
2024/02/15 09:39:03;;;;;;;2.92;1.45;;;;;;;12.33;52.28;93083.22;5097722;28;20522;-81
2024/02/15 09:41:29;;;;;;;3.25;1.40;;;;;;;12.42;53.65;93074.41;5120601;28;20028;-82
2024/02/15 09:43:55;;;;;;;2.85;1.48;;;;;;;12.48;51.37;93075.91;5084636;28;20055;-80
2024/02/15 09:46:20;;;;;;;3.20;1.58;;;;;;;12.52;51.17;93072.72;5077485;28;20036;-80
2024/02/15 09:48:51;;;;;;;2.88;1.50;;;;;;;11.98;51.54;93072.06;5108500;28;20035;-80
2024/02/15 09:51:21;;;;;;;2.78;1.50;;;;;;;11.97;53.61;93083.63;5109849;28;20039;-80
2024/02/15 09:53:47;;;;;;;3.28;1.55;;;;;;;11.88;54.28;93086.09;5090385;28;20111;-80
2024/02/15 09:56:14;;;;;;;3.05;1.63;;;;;;;12.01;55.71;93079.41;5094489;28;20008;-80
2024/02/15 09:58:40;;;;;;;2.35;1.33;;;;;;;12.09;52.54;93086.63;5103983;28;20108;-80
2024/02/15 10:01:09;;;;;;;3.17;1.40;;;;;;;12.20;47.20;93076.81;5113165;28;20036;-80
2024/02/15 10:03:37;;;;;;;2.03;1.25;;;;;;;12.06;44.48;93092.44;5075836;28;20034;-80
2024/02/15 10:06:03;;;;;;;2.35;1.20;;;;;;;11.93;51.18;93085.25;5111376;28;20036;-80
2024/02/15 10:08:29;;;;;;;3.55;1.65;;;;;;;11.83;51.18;93086.91;5084095;28;20036;-82
2024/02/15 10:11:15;;;;;;;3.75;1.70;;;;;;;11.42;52.56;93089.91;5110819;28;20054;-80
2024/02/15 10:13:42;;;;;;;3.03;1.70;;;;;;;11.38;52.79;93090.75;5104623;28;20057;-80
2024/02/15 10:16:16;;;;;;;2.38;1.30;;;;;;;11.24;51.17;93088.75;5103420;28;20032;-80
2024/02/15 10:18:42;;;;;;;3.05;1.60;;;;;;;11.29;54.39;93074.84;5114065;28;20042;-80
2024/02/15 10:21:07;;;;;;;2.70;1.50;;;;;;;11.38;55.08;93081.03;5120375;28;20578;-79
2024/02/15 10:23:33;;;;;;;3.13;1.60;;;;;;;11.23;56.30;93092.41;5122803;28;20104;-80
2024/02/15 10:25:58;;;;;;;3.53;1.58;;;;;;;11.06;52.81;93080.81;5095329;28;20041;-82
2024/02/15 10:28:24;;;;;;;3.55;1.73;;;;;;;10.96;56.26;93087.66;5112078;28;20491;-82
2024/02/15 10:30:52;;;;;;;3.88;1.80;;;;;;;10.91;60.79;93082.47;5087603;28;20092;-79
2024/02/15 10:33:30;;;;;;;4.05;1.58;;;;;;;11.07;57.54;93072.66;5109838;28;20078;-81
2024/02/15 10:36:09;;;;;;;3.17;1.65;;;;;;;11.21;58.89;93072.78;5101954;28;20036;-81
2024/02/15 10:38:35;;;;;;;3.95;1.73;;;;;;;10.83;62.41;93068.13;5103740;28;20046;-81
2024/02/15 10:41:06;;;;;;;3.70;1.63;;;;;;;10.77;59.52;93073.66;5121843;28;20030;-82
2024/02/15 10:43:39;;;;;;;2.88;1.50;;;;;;;10.82;56.30;93076.25;5098574;28;20050;-80
2024/02/15 10:46:09;;;;;;;4.82;1.40;;;;;;;10.84;59.73;93079.38;5105276;28;20059;-81
2024/02/15 10:48:35;;;;;;;2.80;1.38;;;;;;;11.06;56.30;93081.56;5081461;28;20392;-80
2024/02/15 10:51:06;;;;;;;2.50;1.35;;;;;;;11.00;55.44;93077.41;5125566;28;20112;-80
2024/02/15 10:53:35;;;;;;;1.65;1.10;;;;;;;10.96;52.39;93076.41;5115912;28;20085;-81
2024/02/15 10:56:24;;;;;;;1.45;1.15;;;;;;;11.07;49.02;93083.13;5113860;28;20054;-80
2024/02/15 10:58:55;;;;;;;2.38;1.20;;;;;;;11.01;50.87;93085.03;5123383;28;20032;-79
2024/02/15 11:01:23;;;;;;;4.03;1.50;;;;;;;11.12;51.50;93084.91;5112115;28;20085;-79
2024/02/15 11:03:59;;;;;;;1.70;1.30;;;;;;;11.19;51.04;93085.38;5108479;28;20028;-80
2024/02/15 11:06:29;;;;;;;2.15;1.30;;;;;;;11.19;52.64;93085.38;5119997;28;20074;-80
2024/02/15 11:08:56;;;;;;;1.95;1.30;;;;;;;11.07;52.80;93075.25;5108789;28;20055;-80
2024/02/15 11:11:23;;;;;;;4.97;1.50;;;;;;;11.01;54.06;93064.06;5114016;28;20043;-79
2024/02/15 11:13:49;;;;;;;3.30;1.20;;;;;;;11.19;50.94;93074.91;5121714;28;20035;-80
2024/02/15 11:16:44;;;;;;;2.80;1.50;;;;;;;11.33;49.98;93077.69;5106019;28;20022;-81
2024/02/15 11:19:10;;;;;;;1.65;1.00;;;;;;;11.38;50.54;93067.16;5087716;28;20051;-80
2024/02/15 11:21:59;;;;;;;1.77;1.10;;;;;;;11.59;48.53;93062.50;5119938;28;20039;-80
2024/02/15 11:24:29;;;;;;;7.00;2.13;;;;;;;11.41;57.32;93051.63;5117748;28;20023;-79
2024/02/15 11:27:05;;;;;;;3.88;2.00;;;;;;;11.06;61.54;93058.00;5099396;28;20061;-80
2024/02/15 11:29:51;;;;;;;4.15;1.90;;;;;;;10.73;63.56;93060.31;5107921;28;20028;-79
2024/02/15 11:32:51;;;;;;;4.60;1.98;;;;;;;10.48;66.71;93053.41;5105169;28;20324;-80
2024/02/15 11:35:19;;;;;;;5.68;2.17;;;;;;;10.29;68.31;93057.69;5098110;28;20032;-80
2024/02/15 11:37:48;;;;;;;4.15;2.22;;;;;;;10.30;72.08;93054.81;5122845;28;20039;-80
2024/02/15 11:40:16;;;;;;;4.43;2.22;;;;;;;10.20;73.57;93039.94;5116769;28;20024;-80
2024/02/15 11:42:47;;;;;;;5.88;2.15;;;;;;;9.95;74.86;93059.16;5098539;28;20016;-80
2024/02/15 11:45:15;;;;;;;4.85;1.90;;;;;;;9.98;76.67;93042.91;5106652;28;20047;-80
2024/02/15 11:47:48;;;;;;;5.45;1.95;;;;;;;9.88;76.82;93048.16;5107013;28;20042;-80
2024/02/15 11:50:18;;;;;;;4.13;2.08;;;;;;;9.74;76.82;93047.97;5110150;28;20055;-80
2024/02/15 11:52:51;;;;;;;4.00;2.10;;;;;;;9.72;75.36;93044.84;5109007;28;20118;-80